KFSD/FSD METAR and TAF weather

Enter ICAO airport designator
Station Type Date Time Source
KFSD METAR 2020/01/19 00:33 UTC NOAA

KFSD 190033Z 31017G29KT 9SM -SN BKN015 M18/M22 A3030 RMK AO2 PK WND 32031/0021 SNB20 P0000 T11831222 $


Station Type Date Time Source
KFSD Decoded METAR 2020/01/19 00:33 UTC NOAA

SIOUX FALLS FOSS FIELD, SD, United States (KFSD) 43-35N 096-45W 434M
Jan 18, 2020 - 07:33 PM EST / 2020.01.19 0033 UTC
Wind: from the NW (310 degrees) at 20 MPH (17 KT) gusting to 33 MPH (29 KT):0
Visibility: 9 mile(s):0
Sky conditions: mostly cloudy
Weather: light snow
Precipitation last hour: A trace
Temperature: -0.9 F (-18.3 C)
Windchill: -23 F (-31 C):2
Dew Point: -8.0 F (-22.2 C)
Relative Humidity: 71%
Pressure (altimeter): 30.3 in. Hg (1026 hPa)
ob: KFSD 190033Z 31017G29KT 9SM -SN BKN015 M18/M22 A3030 RMK AO2 PK WND 32031/0021 SNB20 P0000 T11831222
cycle: 0

Station Type Date Time Source
KFSD TAF 2020/01/18 23:06 UTC NOAA

TAF
AMD KFSD 182303Z 1823/1918 31020G30KT 4SM BLSN SKC
FM190000 31018G25KT P6SM SKC
FM190600 31016KT P6SM SKC

Example: see airport list